sensor_id;sensor_type;location;lat;lon;timestamp;P1;durP1;ratioP1;P2;durP2;ratioP2
22754;SDS011;11544;42.020;23.094;2022-08-21T00:02:00;9.27;;;4.78;;
22754;SDS011;11544;42.020;23.094;2022-08-21T00:04:26;14.73;;;5.25;;
22754;SDS011;11544;42.020;23.094;2022-08-21T00:06:52;8.77;;;4.47;;
22754;SDS011;11544;42.020;23.094;2022-08-21T00:09:18;11.55;;;4.47;;
22754;SDS011;11544;42.020;23.094;2022-08-21T00:11:45;8.95;;;4.57;;
22754;SDS011;11544;42.020;23.094;2022-08-21T00:14:12;11.13;;;4.55;;
22754;SDS011;11544;42.020;23.094;2022-08-21T00:16:38;13.77;;;5.45;;
22754;SDS011;11544;42.020;23.094;2022-08-21T00:19:04;17.92;;;6.05;;
22754;SDS011;11544;42.020;23.094;2022-08-21T00:21:30;9.70;;;5.05;;
22754;SDS011;11544;42.020;23.094;2022-08-21T00:23:57;10.20;;;5.20;;
22754;SDS011;11544;42.020;23.094;2022-08-21T00:26:22;10.65;;;5.53;;
22754;SDS011;11544;42.020;23.094;2022-08-21T00:28:48;15.13;;;5.80;;
22754;SDS011;11544;42.020;23.094;2022-08-21T00:31:15;6.88;;;5.57;;
22754;SDS011;11544;42.020;23.094;2022-08-21T00:33:41;9.07;;;4.97;;
22754;SDS011;11544;42.020;23.094;2022-08-21T00:36:07;7.22;;;5.72;;
22754;SDS011;11544;42.020;23.094;2022-08-21T00:38:34;10.07;;;5.80;;
22754;SDS011;11544;42.020;23.094;2022-08-21T00:41:00;17.13;;;6.07;;
22754;SDS011;11544;42.020;23.094;2022-08-21T00:43:33;8.02;;;6.45;;
22754;SDS011;11544;42.020;23.094;2022-08-21T00:46:02;13.27;;;6.50;;
22754;SDS011;11544;42.020;23.094;2022-08-21T00:48:31;8.18;;;5.68;;
22754;SDS011;11544;42.020;23.094;2022-08-21T00:50:58;9.63;;;5.90;;
22754;SDS011;11544;42.020;23.094;2022-08-21T00:53:27;8.82;;;6.40;;
22754;SDS011;11544;42.020;23.094;2022-08-21T00:55:56;9.38;;;6.55;;
22754;SDS011;11544;42.020;23.094;2022-08-21T00:58:23;9.80;;;6.28;;
22754;SDS011;11544;42.020;23.094;2022-08-21T01:00:51;12.20;;;5.80;;
22754;SDS011;11544;42.020;23.094;2022-08-21T01:03:19;10.02;;;5.45;;
22754;SDS011;11544;42.020;23.094;2022-08-21T01:05:48;13.60;;;5.78;;
22754;SDS011;11544;42.020;23.094;2022-08-21T01:08:15;12.43;;;4.25;;
22754;SDS011;11544;42.020;23.094;2022-08-21T01:10:43;6.25;;;3.88;;
22754;SDS011;11544;42.020;23.094;2022-08-21T01:13:09;12.35;;;4.22;;
22754;SDS011;11544;42.020;23.094;2022-08-21T01:15:38;12.38;;;4.35;;
22754;SDS011;11544;42.020;23.094;2022-08-21T01:18:07;17.92;;;4.88;;
22754;SDS011;11544;42.020;23.094;2022-08-21T01:20:36;11.60;;;4.95;;
22754;SDS011;11544;42.020;23.094;2022-08-21T01:23:03;13.07;;;5.03;;
22754;SDS011;11544;42.020;23.094;2022-08-21T01:25:30;12.65;;;4.30;;
22754;SDS011;11544;42.020;23.094;2022-08-21T01:27:57;11.05;;;5.18;;
22754;SDS011;11544;42.020;23.094;2022-08-21T01:30:27;12.75;;;5.47;;
22754;SDS011;11544;42.020;23.094;2022-08-21T01:32:53;12.73;;;5.45;;
22754;SDS011;11544;42.020;23.094;2022-08-21T01:35:21;9.32;;;5.85;;
22754;SDS011;11544;42.020;23.094;2022-08-21T01:37:48;7.43;;;5.60;;
22754;SDS011;11544;42.020;23.094;2022-08-21T01:40:15;12.85;;;5.85;;
22754;SDS011;11544;42.020;23.094;2022-08-21T01:42:42;7.72;;;5.18;;
22754;SDS011;11544;42.020;23.094;2022-08-21T01:45:09;11.35;;;4.95;;
22754;SDS011;11544;42.020;23.094;2022-08-21T01:47:36;7.95;;;4.50;;
22754;SDS011;11544;42.020;23.094;2022-08-21T01:50:04;14.43;;;4.93;;
22754;SDS011;11544;42.020;23.094;2022-08-21T01:52:32;11.75;;;5.10;;
22754;SDS011;11544;42.020;23.094;2022-08-21T01:54:58;8.60;;;5.07;;
22754;SDS011;11544;42.020;23.094;2022-08-21T01:57:24;14.13;;;5.88;;
22754;SDS011;11544;42.020;23.094;2022-08-21T01:59:50;15.68;;;5.93;;
22754;SDS011;11544;42.020;23.094;2022-08-21T02:02:16;11.93;;;6.22;;
22754;SDS011;11544;42.020;23.094;2022-08-21T02:04:42;7.95;;;5.25;;
22754;SDS011;11544;42.020;23.094;2022-08-21T02:07:07;9.77;;;5.00;;
22754;SDS011;11544;42.020;23.094;2022-08-21T02:09:33;11.75;;;5.40;;
22754;SDS011;11544;42.020;23.094;2022-08-21T02:11:59;12.10;;;5.40;;
22754;SDS011;11544;42.020;23.094;2022-08-21T02:14:25;15.43;;;5.80;;
22754;SDS011;11544;42.020;23.094;2022-08-21T02:16:50;13.48;;;5.68;;
22754;SDS011;11544;42.020;23.094;2022-08-21T02:19:16;12.13;;;6.35;;
22754;SDS011;11544;42.020;23.094;2022-08-21T02:21:42;13.68;;;6.35;;
22754;SDS011;11544;42.020;23.094;2022-08-21T02:24:08;15.80;;;7.50;;
22754;SDS011;11544;42.020;23.094;2022-08-21T02:26:34;14.23;;;7.55;;
22754;SDS011;11544;42.020;23.094;2022-08-21T02:29:01;13.60;;;7.85;;
22754;SDS011;11544;42.020;23.094;2022-08-21T02:31:28;14.25;;;7.75;;
22754;SDS011;11544;42.020;23.094;2022-08-21T02:33:54;15.40;;;6.25;;
22754;SDS011;11544;42.020;23.094;2022-08-21T02:36:20;11.98;;;6.05;;
22754;SDS011;11544;42.020;23.094;2022-08-21T02:38:46;13.77;;;5.70;;
22754;SDS011;11544;42.020;23.094;2022-08-21T02:41:16;10.65;;;5.47;;
22754;SDS011;11544;42.020;23.094;2022-08-21T02:43:44;7.45;;;4.68;;
22754;SDS011;11544;42.020;23.094;2022-08-21T02:46:16;15.63;;;5.28;;
22754;SDS011;11544;42.020;23.094;2022-08-21T02:48:43;10.30;;;4.80;;
22754;SDS011;11544;42.020;23.094;2022-08-21T02:51:14;8.48;;;5.22;;
22754;SDS011;11544;42.020;23.094;2022-08-21T02:53:44;18.90;;;6.28;;
22754;SDS011;11544;42.020;23.094;2022-08-21T02:56:12;10.27;;;5.47;;
22754;SDS011;11544;42.020;23.094;2022-08-21T02:58:45;11.57;;;6.63;;
22754;SDS011;11544;42.020;23.094;2022-08-21T03:01:12;11.85;;;6.38;;
22754;SDS011;11544;42.020;23.094;2022-08-21T03:03:40;12.18;;;7.10;;
22754;SDS011;11544;42.020;23.094;2022-08-21T03:06:09;13.85;;;6.07;;
22754;SDS011;11544;42.020;23.094;2022-08-21T03:08:36;13.82;;;6.20;;
22754;SDS011;11544;42.020;23.094;2022-08-21T03:11:02;15.65;;;6.68;;
22754;SDS011;11544;42.020;23.094;2022-08-21T03:13:29;13.10;;;6.53;;
22754;SDS011;11544;42.020;23.094;2022-08-21T03:15:55;10.45;;;5.90;;
22754;SDS011;11544;42.020;23.094;2022-08-21T03:18:21;15.80;;;5.82;;
22754;SDS011;11544;42.020;23.094;2022-08-21T03:20:47;10.52;;;5.82;;
22754;SDS011;11544;42.020;23.094;2022-08-21T03:23:15;10.45;;;6.38;;
22754;SDS011;11544;42.020;23.094;2022-08-21T03:25:42;16.40;;;6.13;;
22754;SDS011;11544;42.020;23.094;2022-08-21T03:28:10;12.98;;;6.78;;
22754;SDS011;11544;42.020;23.094;2022-08-21T03:30:46;18.92;;;7.03;;
22754;SDS011;11544;42.020;23.094;2022-08-21T03:33:13;15.88;;;7.05;;
22754;SDS011;11544;42.020;23.094;2022-08-21T03:35:39;12.23;;;7.28;;
22754;SDS011;11544;42.020;23.094;2022-08-21T03:38:06;12.73;;;7.32;;
22754;SDS011;11544;42.020;23.094;2022-08-21T03:40:31;12.65;;;7.53;;
22754;SDS011;11544;42.020;23.094;2022-08-21T03:42:57;12.82;;;7.90;;
22754;SDS011;11544;42.020;23.094;2022-08-21T03:45:23;17.95;;;8.88;;
22754;SDS011;11544;42.020;23.094;2022-08-21T03:50:18;18.67;;;9.55;;
22754;SDS011;11544;42.020;23.094;2022-08-21T03:52:43;12.35;;;8.70;;
22754;SDS011;11544;42.020;23.094;2022-08-21T03:55:10;13.07;;;7.68;;
22754;SDS011;11544;42.020;23.094;2022-08-21T03:57:36;15.90;;;7.32;;
22754;SDS011;11544;42.020;23.094;2022-08-21T04:00:02;9.88;;;6.50;;
22754;SDS011;11544;42.020;23.094;2022-08-21T04:02:33;12.70;;;6.45;;
22754;SDS011;11544;42.020;23.094;2022-08-21T04:04:58;11.13;;;7.20;;
22754;SDS011;11544;42.020;23.094;2022-08-21T04:07:24;16.48;;;7.25;;
22754;SDS011;11544;42.020;23.094;2022-08-21T04:09:50;10.38;;;6.75;;
22754;SDS011;11544;42.020;23.094;2022-08-21T04:12:16;20.02;;;7.57;;
22754;SDS011;11544;42.020;23.094;2022-08-21T04:14:41;12.93;;;6.93;;
22754;SDS011;11544;42.020;23.094;2022-08-21T04:17:07;15.95;;;7.95;;
22754;SDS011;11544;42.020;23.094;2022-08-21T04:19:33;13.80;;;8.35;;
22754;SDS011;11544;42.020;23.094;2022-08-21T04:21:58;14.65;;;8.55;;
22754;SDS011;11544;42.020;23.094;2022-08-21T04:24:24;23.10;;;12.18;;
22754;SDS011;11544;42.020;23.094;2022-08-21T04:26:50;23.65;;;14.25;;
22754;SDS011;11544;42.020;23.094;2022-08-21T04:29:15;27.00;;;15.18;;
22754;SDS011;11544;42.020;23.094;2022-08-21T04:31:41;22.60;;;15.63;;
22754;SDS011;11544;42.020;23.094;2022-08-21T04:34:08;23.38;;;16.92;;
22754;SDS011;11544;42.020;23.094;2022-08-21T04:36:34;21.75;;;17.30;;
22754;SDS011;11544;42.020;23.094;2022-08-21T04:39:00;21.17;;;15.98;;
22754;SDS011;11544;42.020;23.094;2022-08-21T04:41:27;17.92;;;11.15;;
22754;SDS011;11544;42.020;23.094;2022-08-21T04:43:53;20.00;;;9.27;;
22754;SDS011;11544;42.020;23.094;2022-08-21T04:46:20;17.35;;;9.88;;
22754;SDS011;11544;42.020;23.094;2022-08-21T04:48:46;19.67;;;7.32;;
22754;SDS011;11544;42.020;23.094;2022-08-21T04:51:24;13.55;;;6.65;;
22754;SDS011;11544;42.020;23.094;2022-08-21T04:53:56;15.25;;;7.35;;
22754;SDS011;11544;42.020;23.094;2022-08-21T04:56:39;16.20;;;8.25;;
22754;SDS011;11544;42.020;23.094;2022-08-21T04:59:13;16.55;;;9.48;;
22754;SDS011;11544;42.020;23.094;2022-08-21T05:01:44;12.50;;;8.35;;
22754;SDS011;11544;42.020;23.094;2022-08-21T05:04:11;14.50;;;6.78;;
22754;SDS011;11544;42.020;23.094;2022-08-21T05:06:42;11.70;;;6.65;;
22754;SDS011;11544;42.020;23.094;2022-08-21T05:09:12;10.35;;;6.68;;
22754;SDS011;11544;42.020;23.094;2022-08-21T05:11:41;18.27;;;7.30;;
22754;SDS011;11544;42.020;23.094;2022-08-21T05:14:08;16.85;;;6.88;;
22754;SDS011;11544;42.020;23.094;2022-08-21T05:16:35;14.05;;;6.90;;
22754;SDS011;11544;42.020;23.094;2022-08-21T05:19:08;10.25;;;6.00;;
22754;SDS011;11544;42.020;23.094;2022-08-21T05:21:35;12.73;;;6.32;;
22754;SDS011;11544;42.020;23.094;2022-08-21T05:24:02;13.45;;;7.15;;
22754;SDS011;11544;42.020;23.094;2022-08-21T05:26:28;15.73;;;8.50;;
22754;SDS011;11544;42.020;23.094;2022-08-21T05:28:55;15.48;;;8.38;;
22754;SDS011;11544;42.020;23.094;2022-08-21T05:31:21;12.05;;;8.45;;
22754;SDS011;11544;42.020;23.094;2022-08-21T05:33:47;15.30;;;8.75;;
22754;SDS011;11544;42.020;23.094;2022-08-21T05:36:13;15.32;;;8.25;;
22754;SDS011;11544;42.020;23.094;2022-08-21T05:38:39;18.10;;;10.63;;
22754;SDS011;11544;42.020;23.094;2022-08-21T05:41:05;15.68;;;10.60;;
22754;SDS011;11544;42.020;23.094;2022-08-21T05:43:32;16.33;;;11.23;;
22754;SDS011;11544;42.020;23.094;2022-08-21T05:46:02;18.75;;;12.60;;
22754;SDS011;11544;42.020;23.094;2022-08-21T05:48:29;22.58;;;14.20;;
22754;SDS011;11544;42.020;23.094;2022-08-21T05:50:56;25.52;;;15.38;;
22754;SDS011;11544;42.020;23.094;2022-08-21T05:53:22;24.75;;;17.48;;
22754;SDS011;11544;42.020;23.094;2022-08-21T05:55:49;25.25;;;17.08;;
22754;SDS011;11544;42.020;23.094;2022-08-21T05:58:20;32.05;;;18.83;;
22754;SDS011;11544;42.020;23.094;2022-08-21T06:00:48;26.73;;;18.38;;
22754;SDS011;11544;42.020;23.094;2022-08-21T06:03:23;27.20;;;17.98;;
22754;SDS011;11544;42.020;23.094;2022-08-21T06:05:50;28.17;;;19.30;;
22754;SDS011;11544;42.020;23.094;2022-08-21T06:08:18;28.40;;;17.38;;
22754;SDS011;11544;42.020;23.094;2022-08-21T06:10:45;22.67;;;17.05;;
22754;SDS011;11544;42.020;23.094;2022-08-21T06:13:11;33.28;;;20.15;;
22754;SDS011;11544;42.020;23.094;2022-08-21T06:15:38;30.95;;;20.70;;
22754;SDS011;11544;42.020;23.094;2022-08-21T06:18:04;29.92;;;20.73;;
22754;SDS011;11544;42.020;23.094;2022-08-21T06:20:30;28.33;;;19.25;;
22754;SDS011;11544;42.020;23.094;2022-08-21T06:22:55;27.92;;;19.05;;
22754;SDS011;11544;42.020;23.094;2022-08-21T06:25:21;26.55;;;19.60;;
22754;SDS011;11544;42.020;23.094;2022-08-21T06:27:47;23.88;;;16.80;;
22754;SDS011;11544;42.020;23.094;2022-08-21T06:30:13;30.52;;;18.35;;
22754;SDS011;11544;42.020;23.094;2022-08-21T06:32:39;21.77;;;18.48;;
22754;SDS011;11544;42.020;23.094;2022-08-21T06:35:05;24.88;;;17.50;;
22754;SDS011;11544;42.020;23.094;2022-08-21T06:37:32;35.17;;;18.30;;
22754;SDS011;11544;42.020;23.094;2022-08-21T06:39:58;26.23;;;17.73;;
22754;SDS011;11544;42.020;23.094;2022-08-21T06:42:24;27.40;;;18.52;;
22754;SDS011;11544;42.020;23.094;2022-08-21T06:44:52;31.58;;;20.83;;
22754;SDS011;11544;42.020;23.094;2022-08-21T06:47:17;28.27;;;18.60;;
22754;SDS011;11544;42.020;23.094;2022-08-21T06:49:43;27.52;;;17.35;;
22754;SDS011;11544;42.020;23.094;2022-08-21T06:52:09;26.65;;;17.77;;
22754;SDS011;11544;42.020;23.094;2022-08-21T06:54:36;28.20;;;16.63;;
22754;SDS011;11544;42.020;23.094;2022-08-21T06:57:03;24.02;;;16.27;;
22754;SDS011;11544;42.020;23.094;2022-08-21T06:59:28;20.20;;;15.32;;
22754;SDS011;11544;42.020;23.094;2022-08-21T07:01:54;25.80;;;16.35;;
22754;SDS011;11544;42.020;23.094;2022-08-21T07:04:20;19.50;;;15.50;;
22754;SDS011;11544;42.020;23.094;2022-08-21T07:06:46;29.42;;;18.83;;
22754;SDS011;11544;42.020;23.094;2022-08-21T07:09:12;29.70;;;18.35;;
22754;SDS011;11544;42.020;23.094;2022-08-21T07:11:37;30.67;;;18.40;;
22754;SDS011;11544;42.020;23.094;2022-08-21T07:14:03;27.50;;;18.65;;
22754;SDS011;11544;42.020;23.094;2022-08-21T07:16:29;26.50;;;18.88;;
22754;SDS011;11544;42.020;23.094;2022-08-21T07:18:55;27.90;;;19.08;;
22754;SDS011;11544;42.020;23.094;2022-08-21T07:21:21;30.30;;;18.42;;
22754;SDS011;11544;42.020;23.094;2022-08-21T07:23:48;29.38;;;19.50;;
22754;SDS011;11544;42.020;23.094;2022-08-21T07:26:16;28.80;;;19.67;;
22754;SDS011;11544;42.020;23.094;2022-08-21T07:28:46;26.80;;;20.02;;
22754;SDS011;11544;42.020;23.094;2022-08-21T07:31:13;31.50;;;19.67;;
22754;SDS011;11544;42.020;23.094;2022-08-21T07:33:40;27.55;;;19.75;;
22754;SDS011;11544;42.020;23.094;2022-08-21T07:36:06;30.48;;;20.13;;
22754;SDS011;11544;42.020;23.094;2022-08-21T07:38:33;24.42;;;19.35;;
22754;SDS011;11544;42.020;23.094;2022-08-21T07:40:59;26.35;;;21.05;;
22754;SDS011;11544;42.020;23.094;2022-08-21T07:43:27;25.17;;;19.80;;
22754;SDS011;11544;42.020;23.094;2022-08-21T07:45:53;29.95;;;19.20;;
22754;SDS011;11544;42.020;23.094;2022-08-21T07:48:20;29.48;;;18.65;;
22754;SDS011;11544;42.020;23.094;2022-08-21T07:50:47;26.00;;;18.25;;
22754;SDS011;11544;42.020;23.094;2022-08-21T07:53:13;23.05;;;17.55;;
22754;SDS011;11544;42.020;23.094;2022-08-21T07:55:39;29.17;;;19.00;;
22754;SDS011;11544;42.020;23.094;2022-08-21T07:58:05;26.65;;;18.45;;
22754;SDS011;11544;42.020;23.094;2022-08-21T08:00:31;27.27;;;20.48;;
22754;SDS011;11544;42.020;23.094;2022-08-21T08:02:58;29.88;;;20.75;;
22754;SDS011;11544;42.020;23.094;2022-08-21T08:05:26;29.45;;;22.23;;
22754;SDS011;11544;42.020;23.094;2022-08-21T08:07:54;29.17;;;20.90;;
22754;SDS011;11544;42.020;23.094;2022-08-21T08:10:21;27.35;;;21.27;;
22754;SDS011;11544;42.020;23.094;2022-08-21T08:12:47;25.83;;;18.95;;
22754;SDS011;11544;42.020;23.094;2022-08-21T08:15:14;26.55;;;20.15;;
22754;SDS011;11544;42.020;23.094;2022-08-21T08:17:42;26.90;;;20.08;;
22754;SDS011;11544;42.020;23.094;2022-08-21T08:20:09;29.63;;;21.70;;
22754;SDS011;11544;42.020;23.094;2022-08-21T08:22:37;27.77;;;20.70;;
22754;SDS011;11544;42.020;23.094;2022-08-21T08:25:04;24.48;;;17.30;;
22754;SDS011;11544;42.020;23.094;2022-08-21T08:27:31;27.75;;;19.73;;
22754;SDS011;11544;42.020;23.094;2022-08-21T08:29:57;27.65;;;19.45;;
22754;SDS011;11544;42.020;23.094;2022-08-21T08:32:23;26.73;;;18.75;;
22754;SDS011;11544;42.020;23.094;2022-08-21T08:34:49;24.38;;;17.50;;
22754;SDS011;11544;42.020;23.094;2022-08-21T08:37:17;28.85;;;17.33;;
22754;SDS011;11544;42.020;23.094;2022-08-21T08:39:44;25.92;;;18.08;;
22754;SDS011;11544;42.020;23.094;2022-08-21T08:42:18;25.80;;;16.30;;
22754;SDS011;11544;42.020;23.094;2022-08-21T08:44:57;27.85;;;18.73;;
22754;SDS011;11544;42.020;23.094;2022-08-21T08:47:36;23.95;;;16.13;;
22754;SDS011;11544;42.020;23.094;2022-08-21T08:50:09;28.35;;;18.63;;
22754;SDS011;11544;42.020;23.094;2022-08-21T08:53:28;29.08;;;17.20;;
22754;SDS011;11544;42.020;23.094;2022-08-21T08:55:35;24.67;;;17.20;;
22754;SDS011;11544;42.020;23.094;2022-08-21T08:58:04;29.77;;;18.30;;
22754;SDS011;11544;42.020;23.094;2022-08-21T09:00:30;23.83;;;16.63;;
22754;SDS011;11544;42.020;23.094;2022-08-21T09:02:57;24.38;;;18.35;;
22754;SDS011;11544;42.020;23.094;2022-08-21T09:05:27;27.65;;;18.73;;
22754;SDS011;11544;42.020;23.094;2022-08-21T09:08:20;27.67;;;18.30;;
22754;SDS011;11544;42.020;23.094;2022-08-21T09:12:02;29.48;;;17.58;;
22754;SDS011;11544;42.020;23.094;2022-08-21T09:17:08;23.83;;;18.52;;
22754;SDS011;11544;42.020;23.094;2022-08-21T09:19:46;26.17;;;17.88;;
22754;SDS011;11544;42.020;23.094;2022-08-21T09:22:26;25.42;;;18.17;;
22754;SDS011;11544;42.020;23.094;2022-08-21T09:25:01;32.17;;;19.23;;
22754;SDS011;11544;42.020;23.094;2022-08-21T09:27:37;30.77;;;21.00;;
22754;SDS011;11544;42.020;23.094;2022-08-21T09:30:04;26.80;;;19.80;;
22754;SDS011;11544;42.020;23.094;2022-08-21T09:32:32;29.48;;;19.65;;
22754;SDS011;11544;42.020;23.094;2022-08-21T09:35:03;27.30;;;20.25;;
22754;SDS011;11544;42.020;23.094;2022-08-21T09:37:33;30.08;;;19.98;;
22754;SDS011;11544;42.020;23.094;2022-08-21T09:40:18;33.13;;;20.92;;
22754;SDS011;11544;42.020;23.094;2022-08-21T09:42:53;29.67;;;22.20;;
22754;SDS011;11544;42.020;23.094;2022-08-21T09:45:23;33.45;;;21.95;;
22754;SDS011;11544;42.020;23.094;2022-08-21T09:47:49;26.92;;;22.23;;
22754;SDS011;11544;42.020;23.094;2022-08-21T09:50:20;32.72;;;23.27;;
22754;SDS011;11544;42.020;23.094;2022-08-21T09:52:49;37.10;;;23.92;;
22754;SDS011;11544;42.020;23.094;2022-08-21T09:55:26;33.53;;;24.10;;
22754;SDS011;11544;42.020;23.094;2022-08-21T09:58:17;35.53;;;23.60;;
22754;SDS011;11544;42.020;23.094;2022-08-21T10:00:43;32.33;;;24.02;;
22754;SDS011;11544;42.020;23.094;2022-08-21T10:03:11;31.50;;;23.95;;
22754;SDS011;11544;42.020;23.094;2022-08-21T10:06:22;39.03;;;28.50;;
22754;SDS011;11544;42.020;23.094;2022-08-21T10:08:45;33.63;;;27.50;;
22754;SDS011;11544;42.020;23.094;2022-08-21T10:11:12;38.85;;;28.98;;
22754;SDS011;11544;42.020;23.094;2022-08-21T10:19:15;35.10;;;27.08;;
22754;SDS011;11544;42.020;23.094;2022-08-21T10:21:58;28.55;;;23.73;;
22754;SDS011;11544;42.020;23.094;2022-08-21T10:30:08;30.58;;;24.20;;
22754;SDS011;11544;42.020;23.094;2022-08-21T10:40:35;24.65;;;19.92;;
22754;SDS011;11544;42.020;23.094;2022-08-21T10:48:14;23.95;;;16.73;;
22754;SDS011;11544;42.020;23.094;2022-08-21T10:50:48;23.88;;;15.25;;
22754;SDS011;11544;42.020;23.094;2022-08-21T10:53:18;22.52;;;16.10;;
22754;SDS011;11544;42.020;23.094;2022-08-21T10:55:56;20.08;;;15.13;;
22754;SDS011;11544;42.020;23.094;2022-08-21T11:01:33;25.92;;;19.58;;
22754;SDS011;11544;42.020;23.094;2022-08-21T11:04:31;29.48;;;19.88;;
22754;SDS011;11544;42.020;23.094;2022-08-21T11:07:03;26.80;;;18.63;;
22754;SDS011;11544;42.020;23.094;2022-08-21T11:09:37;27.42;;;18.75;;
22754;SDS011;11544;42.020;23.094;2022-08-21T11:12:17;30.50;;;19.63;;
22754;SDS011;11544;42.020;23.094;2022-08-21T11:14:56;27.63;;;21.88;;
22754;SDS011;11544;42.020;23.094;2022-08-21T11:17:30;34.72;;;23.05;;
22754;SDS011;11544;42.020;23.094;2022-08-21T11:20:13;28.08;;;22.10;;
22754;SDS011;11544;42.020;23.094;2022-08-21T11:22:49;27.45;;;21.05;;
22754;SDS011;11544;42.020;23.094;2022-08-21T11:25:21;29.73;;;21.65;;
22754;SDS011;11544;42.020;23.094;2022-08-21T11:27:54;26.02;;;20.23;;
22754;SDS011;11544;42.020;23.094;2022-08-21T11:30:31;29.88;;;20.45;;
22754;SDS011;11544;42.020;23.094;2022-08-21T11:33:26;28.02;;;21.52;;
22754;SDS011;11544;42.020;23.094;2022-08-21T11:36:29;25.25;;;20.30;;
22754;SDS011;11544;42.020;23.094;2022-08-21T11:41:52;27.35;;;21.00;;
22754;SDS011;11544;42.020;23.094;2022-08-21T11:54:50;19.90;;;16.33;;
22754;SDS011;11544;42.020;23.094;2022-08-21T11:57:24;16.80;;;13.98;;
22754;SDS011;11544;42.020;23.094;2022-08-21T12:00:01;18.05;;;14.05;;
22754;SDS011;11544;42.020;23.094;2022-08-21T12:02:43;20.17;;;16.88;;
22754;SDS011;11544;42.020;23.094;2022-08-21T12:05:23;19.20;;;14.02;;
22754;SDS011;11544;42.020;23.094;2022-08-21T12:08:03;18.55;;;14.65;;
22754;SDS011;11544;42.020;23.094;2022-08-21T12:10:35;22.00;;;15.73;;
22754;SDS011;11544;42.020;23.094;2022-08-21T12:13:22;18.80;;;15.68;;
22754;SDS011;11544;42.020;23.094;2022-08-21T12:15:51;21.15;;;16.52;;
22754;SDS011;11544;42.020;23.094;2022-08-21T12:18:30;22.00;;;15.68;;
22754;SDS011;11544;42.020;23.094;2022-08-21T12:20:58;19.30;;;15.07;;
22754;SDS011;11544;42.020;23.094;2022-08-21T12:23:45;19.90;;;16.95;;
22754;SDS011;11544;42.020;23.094;2022-08-21T12:26:35;21.02;;;15.82;;
22754;SDS011;11544;42.020;23.094;2022-08-21T12:29:16;19.50;;;16.67;;
22754;SDS011;11544;42.020;23.094;2022-08-21T12:31:48;20.40;;;15.77;;
22754;SDS011;11544;42.020;23.094;2022-08-21T12:34:20;21.83;;;15.65;;
22754;SDS011;11544;42.020;23.094;2022-08-21T12:36:53;19.02;;;14.85;;
22754;SDS011;11544;42.020;23.094;2022-08-21T12:39:25;16.20;;;13.75;;
22754;SDS011;11544;42.020;23.094;2022-08-21T12:41:57;17.95;;;14.10;;
22754;SDS011;11544;42.020;23.094;2022-08-21T12:45:14;21.90;;;15.90;;
22754;SDS011;11544;42.020;23.094;2022-08-21T12:47:30;24.13;;;15.82;;
22754;SDS011;11544;42.020;23.094;2022-08-21T12:52:45;19.58;;;15.15;;
22754;SDS011;11544;42.020;23.094;2022-08-21T12:55:25;20.02;;;15.02;;
22754;SDS011;11544;42.020;23.094;2022-08-21T12:57:56;19.58;;;15.65;;
22754;SDS011;11544;42.020;23.094;2022-08-21T13:00:23;18.85;;;14.70;;
22754;SDS011;11544;42.020;23.094;2022-08-21T13:02:51;25.60;;;19.45;;
22754;SDS011;11544;42.020;23.094;2022-08-21T13:05:28;20.20;;;18.02;;
22754;SDS011;11544;42.020;23.094;2022-08-21T13:07:59;22.50;;;15.70;;
22754;SDS011;11544;42.020;23.094;2022-08-21T13:10:30;24.17;;;15.13;;
22754;SDS011;11544;42.020;23.094;2022-08-21T13:13:02;17.92;;;13.40;;
22754;SDS011;11544;42.020;23.094;2022-08-21T13:15:31;18.02;;;13.57;;
22754;SDS011;11544;42.020;23.094;2022-08-21T13:17:59;17.25;;;14.23;;
22754;SDS011;11544;42.020;23.094;2022-08-21T13:20:34;19.25;;;13.82;;
22754;SDS011;11544;42.020;23.094;2022-08-21T13:23:06;15.73;;;13.05;;
22754;SDS011;11544;42.020;23.094;2022-08-21T13:25:41;16.77;;;13.35;;
22754;SDS011;11544;42.020;23.094;2022-08-21T13:28:08;14.93;;;13.32;;
22754;SDS011;11544;42.020;23.094;2022-08-21T13:31:10;14.38;;;11.35;;
22754;SDS011;11544;42.020;23.094;2022-08-21T13:33:32;14.20;;;12.10;;
22754;SDS011;11544;42.020;23.094;2022-08-21T13:36:05;18.00;;;14.05;;
22754;SDS011;11544;42.020;23.094;2022-08-21T13:38:54;18.95;;;13.50;;
22754;SDS011;11544;42.020;23.094;2022-08-21T13:41:26;15.85;;;13.30;;
22754;SDS011;11544;42.020;23.094;2022-08-21T13:44:17;13.07;;;10.95;;
22754;SDS011;11544;42.020;23.094;2022-08-21T13:46:59;13.50;;;10.38;;
22754;SDS011;11544;42.020;23.094;2022-08-21T13:49:45;16.50;;;11.05;;
22754;SDS011;11544;42.020;23.094;2022-08-21T13:52:17;16.20;;;10.52;;
22754;SDS011;11544;42.020;23.094;2022-08-21T13:54:59;15.10;;;10.82;;
22754;SDS011;11544;42.020;23.094;2022-08-21T13:57:33;13.75;;;10.73;;
22754;SDS011;11544;42.020;23.094;2022-08-21T14:00:12;13.95;;;10.70;;
22754;SDS011;11544;42.020;23.094;2022-08-21T14:02:42;16.15;;;11.02;;
22754;SDS011;11544;42.020;23.094;2022-08-21T14:05:21;13.50;;;10.52;;
22754;SDS011;11544;42.020;23.094;2022-08-21T14:07:55;14.52;;;10.48;;
22754;SDS011;11544;42.020;23.094;2022-08-21T14:10:31;14.88;;;11.15;;
22754;SDS011;11544;42.020;23.094;2022-08-21T14:13:16;13.25;;;10.65;;
22754;SDS011;11544;42.020;23.094;2022-08-21T14:16:25;16.25;;;10.63;;
22754;SDS011;11544;42.020;23.094;2022-08-21T14:21:27;13.85;;;9.73;;
22754;SDS011;11544;42.020;23.094;2022-08-21T14:26:36;11.98;;;9.93;;
22754;SDS011;11544;42.020;23.094;2022-08-21T14:29:09;11.95;;;9.80;;
22754;SDS011;11544;42.020;23.094;2022-08-21T14:31:38;13.85;;;9.38;;
22754;SDS011;11544;42.020;23.094;2022-08-21T14:34:04;13.70;;;10.50;;
22754;SDS011;11544;42.020;23.094;2022-08-21T14:36:30;13.40;;;11.35;;
22754;SDS011;11544;42.020;23.094;2022-08-21T14:38:56;11.98;;;10.43;;
22754;SDS011;11544;42.020;23.094;2022-08-21T14:41:23;12.38;;;11.13;;
22754;SDS011;11544;42.020;23.094;2022-08-21T14:43:51;11.35;;;9.90;;
22754;SDS011;11544;42.020;23.094;2022-08-21T14:46:28;13.20;;;10.95;;
22754;SDS011;11544;42.020;23.094;2022-08-21T14:48:55;12.98;;;9.10;;
22754;SDS011;11544;42.020;23.094;2022-08-21T14:51:21;11.63;;;10.23;;
22754;SDS011;11544;42.020;23.094;2022-08-21T14:53:47;15.20;;;10.15;;
22754;SDS011;11544;42.020;23.094;2022-08-21T14:56:13;12.27;;;10.10;;
22754;SDS011;11544;42.020;23.094;2022-08-21T14:58:53;17.13;;;9.77;;
22754;SDS011;11544;42.020;23.094;2022-08-21T15:01:21;13.15;;;9.32;;
22754;SDS011;11544;42.020;23.094;2022-08-21T15:03:47;11.23;;;8.95;;
22754;SDS011;11544;42.020;23.094;2022-08-21T15:06:14;10.25;;;9.13;;
22754;SDS011;11544;42.020;23.094;2022-08-21T15:08:41;10.80;;;8.98;;
22754;SDS011;11544;42.020;23.094;2022-08-21T15:11:08;14.43;;;8.80;;
22754;SDS011;11544;42.020;23.094;2022-08-21T15:13:48;14.50;;;9.18;;
22754;SDS011;11544;42.020;23.094;2022-08-21T15:16:21;16.25;;;8.77;;
22754;SDS011;11544;42.020;23.094;2022-08-21T15:18:47;11.25;;;8.80;;
22754;SDS011;11544;42.020;23.094;2022-08-21T15:21:13;13.38;;;8.48;;
22754;SDS011;11544;42.020;23.094;2022-08-21T15:23:40;12.15;;;8.32;;
22754;SDS011;11544;42.020;23.094;2022-08-21T15:26:06;14.43;;;8.60;;
22754;SDS011;11544;42.020;23.094;2022-08-21T15:28:33;11.95;;;8.75;;